Time;durP1;ratioP1;P1;durP2;ratioP2;P2;SDS_P1;SDS_P2;PMS_P1;PMS_P2;Temp;Humidity;BMP_temperature;BMP_pressure;BME280_temperature;BME280_humidity;BME280_pressure;Samples;Min_cycle;Max_cycle;Signal;HPM_P1;HPM_P2
2023/12/07 00:01:40;;;;;;;53.70;30.13;;;0.50;99.90;;;;;;5120649;27;20026;-73
2023/12/07 00:04:06;;;;;;;51.58;34.08;;;0.50;99.90;;;;;;5139368;27;20027;-73
2023/12/07 00:06:32;;;;;;;44.38;28.77;;;0.40;99.90;;;;;;5139056;27;20063;-73
2023/12/07 00:08:58;;;;;;;49.38;29.92;;;0.30;99.90;;;;;;5139142;27;20079;-73
2023/12/07 00:11:24;;;;;;;43.55;29.58;;;0.30;99.90;;;;;;5138910;27;20372;-73
2023/12/07 00:13:49;;;;;;;47.00;30.77;;;0.30;99.90;;;;;;5138753;27;20061;-73
2023/12/07 00:16:15;;;;;;;52.58;30.73;;;0.30;99.90;;;;;;5138760;27;20015;-73
2023/12/07 00:18:41;;;;;;;47.30;29.70;;;0.30;99.90;;;;;;5136859;27;20023;-73
2023/12/07 00:21:08;;;;;;;40.92;27.13;;;0.30;99.90;;;;;;5136813;27;20030;-73
2023/12/07 00:23:34;;;;;;;44.47;26.75;;;0.30;99.90;;;;;;5139014;27;20054;-73
2023/12/07 00:26:00;;;;;;;43.72;27.50;;;0.30;99.90;;;;;;5138718;27;20026;-73
2023/12/07 00:28:26;;;;;;;53.45;31.95;;;0.30;99.90;;;;;;5138591;27;20030;-73
2023/12/07 00:30:52;;;;;;;65.22;38.63;;;0.30;99.90;;;;;;5119915;27;20033;-73
2023/12/07 00:33:17;;;;;;;53.90;33.85;;;0.30;99.90;;;;;;5120113;27;20023;-73
2023/12/07 00:35:43;;;;;;;66.78;38.17;;;0.30;99.90;;;;;;5138613;27;20414;-73
2023/12/07 00:38:09;;;;;;;65.55;37.85;;;0.30;99.90;;;;;;5138497;27;20576;-73
2023/12/07 00:40:36;;;;;;;51.17;32.20;;;0.30;99.90;;;;;;5119904;27;20098;-73
2023/12/07 00:43:03;;;;;;;50.75;33.28;;;0.20;99.90;;;;;;5138367;27;20051;-73
2023/12/07 00:45:29;;;;;;;52.67;33.88;;;0.20;99.90;;;;;;5138243;27;20019;-73
2023/12/07 00:47:54;;;;;;;31.80;22.35;;;0.20;99.90;;;;;;5138621;27;20099;-73
2023/12/07 00:50:20;;;;;;;32.42;22.50;;;0.20;99.90;;;;;;5137267;27;20027;-73
2023/12/07 00:52:45;;;;;;;35.30;21.13;;;0.20;99.90;;;;;;5138122;27;20019;-73
2023/12/07 00:55:11;;;;;;;41.95;23.50;;;0.20;99.90;;;;;;5138163;27;20055;-73
2023/12/07 00:57:37;;;;;;;28.88;23.35;;;0.20;99.90;;;;;;5138180;27;20155;-73
2023/12/07 01:00:04;;;;;;;52.90;27.23;;;0.20;99.90;;;;;;5119552;27;20707;-73
2023/12/07 01:02:29;;;;;;;33.55;24.08;;;0.20;99.90;;;;;;5119561;27;20370;-73
2023/12/07 01:04:55;;;;;;;40.00;22.45;;;0.20;99.90;;;;;;5138003;27;20087;-73
2023/12/07 01:07:21;;;;;;;33.67;20.80;;;0.20;99.90;;;;;;5138050;27;20088;-73
2023/12/07 01:09:47;;;;;;;32.50;22.20;;;0.20;99.90;;;;;;5137735;27;20023;-73
2023/12/07 01:12:12;;;;;;;37.92;22.30;;;0.20;99.90;;;;;;5137849;27;20648;-73
2023/12/07 01:14:38;;;;;;;32.90;22.60;;;0.10;99.90;;;;;;5137451;27;20035;-73
2023/12/07 01:17:04;;;;;;;33.83;21.95;;;0.10;99.90;;;;;;5137643;27;20398;-73
2023/12/07 01:19:29;;;;;;;39.75;23.77;;;0.10;99.90;;;;;;5134178;27;20034;-73
2023/12/07 01:21:55;;;;;;;37.65;24.02;;;0.10;99.90;;;;;;5137735;27;20030;-73
2023/12/07 01:24:21;;;;;;;37.50;25.27;;;0.10;99.90;;;;;;5137517;27;20030;-73
2023/12/07 01:26:46;;;;;;;34.63;22.85;;;0.10;99.90;;;;;;5137646;27;20027;-73
2023/12/07 01:29:13;;;;;;;42.17;23.08;;;0.10;99.90;;;;;;5137297;27;20026;-73
2023/12/07 01:31:40;;;;;;;41.38;25.58;;;0.00;99.90;;;;;;5137626;27;20023;-73
2023/12/07 01:34:05;;;;;;;39.88;23.85;;;0.00;99.90;;;;;;5137225;27;20046;-73
2023/12/07 01:36:31;;;;;;;37.30;23.05;;;0.00;99.90;;;;;;5137389;27;20019;-73
2023/12/07 01:38:57;;;;;;;32.97;25.05;;;0.00;99.90;;;;;;5137211;27;20023;-73
2023/12/07 01:41:23;;;;;;;35.60;25.20;;;0.00;99.90;;;;;;5118777;27;20409;-73
2023/12/07 01:43:48;;;;;;;36.13;24.40;;;-0.10;99.90;;;;;;5137006;27;20015;-73
2023/12/07 01:46:16;;;;;;;44.75;25.55;;;-0.10;99.90;;;;;;5137342;27;20027;-73
2023/12/07 01:48:43;;;;;;;37.38;25.00;;;0.00;99.90;;;;;;5118758;27;20027;-73
2023/12/07 01:51:10;;;;;;;39.28;25.40;;;-0.10;99.90;;;;;;5137230;27;20075;-73
2023/12/07 01:53:39;;;;;;;39.42;26.20;;;-0.10;99.90;;;;;;5136602;27;20081;-73
2023/12/07 01:56:05;;;;;;;41.47;24.23;;;-0.10;99.90;;;;;;5137050;27;20551;-73
2023/12/07 01:58:31;;;;;;;35.03;23.13;;;-0.10;99.90;;;;;;5136653;27;20023;-73
2023/12/07 02:00:57;;;;;;;46.97;26.45;;;-0.10;99.90;;;;;;5136785;27;20026;-73
2023/12/07 02:03:23;;;;;;;43.25;25.17;;;-0.10;99.90;;;;;;5136647;27;20019;-73
2023/12/07 02:05:49;;;;;;;42.17;23.70;;;-0.10;99.90;;;;;;5135930;27;20110;-74
2023/12/07 02:08:15;;;;;;;33.22;21.08;;;-0.10;99.90;;;;;;5118060;27;20030;-73
2023/12/07 02:10:41;;;;;;;36.13;21.23;;;-0.10;99.90;;;;;;5118194;27;20035;-73
2023/12/07 02:13:07;;;;;;;33.80;19.52;;;-0.10;99.90;;;;;;5136271;27;20510;-73
2023/12/07 02:15:33;;;;;;;22.20;15.90;;;-0.10;99.90;;;;;;5136628;27;20098;-73
2023/12/07 02:18:04;;;;;;;26.05;17.80;;;-0.10;99.90;;;;;;5136662;27;20062;-73
2023/12/07 02:20:37;;;;;;;25.65;19.30;;;-0.20;99.90;;;;;;5115390;27;20460;-73
2023/12/07 02:23:06;;;;;;;27.83;18.83;;;-0.20;99.90;;;;;;5136444;27;20479;-73
2023/12/07 02:25:53;;;;;;;27.85;19.52;;;-0.20;99.90;;;;;;5136559;27;20026;-73
2023/12/07 02:28:18;;;;;;;31.70;19.08;;;-0.20;99.90;;;;;;5102719;28;20031;-74
2023/12/07 02:30:44;;;;;;;33.88;21.45;;;-0.20;99.90;;;;;;5131429;27;20024;-73
2023/12/07 02:33:11;;;;;;;34.65;21.85;;;-0.20;99.90;;;;;;5136667;27;20545;-74
2023/12/07 02:35:37;;;;;;;35.75;23.35;;;-0.20;99.90;;;;;;5136276;27;20034;-74
2023/12/07 02:38:05;;;;;;;41.97;25.25;;;-0.30;99.90;;;;;;5136281;27;20030;-74
2023/12/07 02:40:32;;;;;;;37.53;23.98;;;-0.30;99.90;;;;;;5136597;28;20019;-73
2023/12/07 02:42:59;;;;;;;38.85;25.45;;;-0.30;99.90;;;;;;5136083;28;20031;-73
2023/12/07 02:45:26;;;;;;;41.67;24.88;;;-0.40;99.90;;;;;;5136342;28;20043;-73
2023/12/07 02:47:51;;;;;;;34.45;23.80;;;-0.40;99.90;;;;;;5136320;28;20096;-73
2023/12/07 02:50:17;;;;;;;38.92;23.50;;;-0.40;99.90;;;;;;5117918;28;20023;-73
2023/12/07 02:52:43;;;;;;;35.78;23.25;;;-0.40;99.90;;;;;;5135856;28;20495;-74
2023/12/07 02:55:09;;;;;;;31.70;21.60;;;-0.40;99.90;;;;;;5117769;28;20555;-74
2023/12/07 02:57:34;;;;;;;38.35;22.20;;;-0.40;99.90;;;;;;5135955;28;20027;-73
2023/12/07 03:00:01;;;;;;;33.20;23.80;;;-0.40;99.90;;;;;;5136145;28;20022;-74
2023/12/07 03:02:29;;;;;;;36.22;24.67;;;-0.50;99.90;;;;;;5117641;28;20019;-74
2023/12/07 03:04:54;;;;;;;40.10;25.55;;;-0.50;99.90;;;;;;5136200;28;20019;-74
2023/12/07 03:07:20;;;;;;;39.25;26.48;;;-0.50;99.90;;;;;;5135923;28;20023;-74
2023/12/07 03:09:45;;;;;;;32.88;22.63;;;-0.50;99.90;;;;;;5117002;28;20031;-73
2023/12/07 03:12:11;;;;;;;31.63;23.08;;;-0.50;99.90;;;;;;5135612;28;20034;-73
2023/12/07 03:14:37;;;;;;;34.75;23.05;;;-0.50;99.90;;;;;;5117670;27;20027;-73
2023/12/07 03:17:03;;;;;;;51.95;30.75;;;-0.50;99.90;;;;;;5139398;27;20037;-74
2023/12/07 03:19:28;;;;;;;40.63;26.05;;;-0.50;99.90;;;;;;5139798;27;20015;-74
2023/12/07 03:21:54;;;;;;;39.95;24.10;;;-0.50;99.90;;;;;;5139573;27;20054;-74
2023/12/07 03:24:19;;;;;;;41.38;24.92;;;-0.60;99.90;;;;;;5139988;27;20016;-73
2023/12/07 03:26:45;;;;;;;35.47;23.73;;;-0.60;99.90;;;;;;5139924;27;20363;-74
2023/12/07 03:29:11;;;;;;;40.63;23.52;;;-0.50;99.90;;;;;;5139500;27;20016;-73
2023/12/07 03:31:37;;;;;;;28.85;21.80;;;-0.50;99.90;;;;;;5138752;27;20027;-74
2023/12/07 03:34:05;;;;;;;30.75;20.40;;;-0.50;99.90;;;;;;5139700;27;20023;-74
2023/12/07 03:36:30;;;;;;;34.92;21.40;;;-0.50;99.90;;;;;;5139789;27;20022;-74
2023/12/07 03:38:56;;;;;;;33.28;20.88;;;-0.50;99.90;;;;;;5139568;27;20098;-74
2023/12/07 03:41:22;;;;;;;29.02;19.83;;;-0.40;99.90;;;;;;5139695;27;20098;-74
2023/12/07 03:43:47;;;;;;;36.13;20.90;;;-0.40;99.90;;;;;;5139504;27;20027;-74
2023/12/07 03:46:13;;;;;;;33.45;19.58;;;-0.30;99.90;;;;;;5139476;27;20031;-74
2023/12/07 03:48:38;;;;;;;32.03;20.60;;;-0.30;99.90;;;;;;5119296;27;20028;-74
2023/12/07 03:51:05;;;;;;;27.70;18.17;;;-0.30;99.90;;;;;;5139663;27;20031;-74
2023/12/07 03:53:31;;;;;;;22.77;16.83;;;-0.30;99.90;;;;;;5139036;27;20522;-74
2023/12/07 03:55:57;;;;;;;23.33;15.93;;;-0.20;99.90;;;;;;5120976;27;20067;-74
2023/12/07 03:58:22;;;;;;;24.80;15.70;;;-0.20;99.90;;;;;;5120321;27;20030;-74
2023/12/07 04:00:48;;;;;;;27.98;16.10;;;-0.20;99.90;;;;;;5132923;27;20028;-74
2023/12/07 04:03:14;;;;;;;22.75;17.13;;;-0.10;99.90;;;;;;5127750;27;20510;-74
2023/12/07 04:05:39;;;;;;;24.33;16.58;;;-0.10;99.90;;;;;;5109227;27;20031;-74
2023/12/07 04:08:05;;;;;;;29.58;19.98;;;-0.10;99.90;;;;;;5120134;27;20027;-74
2023/12/07 04:10:31;;;;;;;32.70;19.08;;;-0.20;99.90;;;;;;5120532;27;20487;-74
2023/12/07 04:12:57;;;;;;;32.17;19.40;;;-0.20;99.90;;;;;;5138742;27;20106;-74
2023/12/07 04:15:23;;;;;;;25.10;17.92;;;-0.30;99.90;;;;;;5120347;27;20091;-74
2023/12/07 04:17:49;;;;;;;28.10;20.05;;;-0.30;99.90;;;;;;5137454;27;20713;-74
2023/12/07 04:20:15;;;;;;;32.42;18.60;;;-0.30;99.90;;;;;;5132919;27;20098;-74
2023/12/07 04:22:41;;;;;;;30.45;18.65;;;-0.30;99.90;;;;;;5120193;27;20058;-74
2023/12/07 04:25:07;;;;;;;32.67;20.27;;;-0.30;99.90;;;;;;5138702;27;20019;-74
2023/12/07 04:27:33;;;;;;;27.85;18.30;;;-0.30;99.90;;;;;;5120053;27;20023;-74
2023/12/07 04:29:59;;;;;;;28.83;19.25;;;-0.30;99.90;;;;;;5120301;27;20483;-74
2023/12/07 04:32:25;;;;;;;29.15;19.95;;;-0.40;99.90;;;;;;5138529;27;20064;-74
2023/12/07 04:34:51;;;;;;;25.27;17.45;;;-0.30;99.90;;;;;;5120141;27;20031;-74
2023/12/07 04:37:17;;;;;;;26.98;17.17;;;-0.30;99.90;;;;;;5138362;27;20019;-74
2023/12/07 04:39:43;;;;;;;25.88;16.23;;;-0.30;99.90;;;;;;5138569;27;20015;-74
2023/12/07 04:42:08;;;;;;;22.55;17.15;;;-0.30;99.90;;;;;;5138190;27;20099;-74
2023/12/07 04:44:34;;;;;;;26.30;15.15;;;-0.30;99.90;;;;;;5138565;27;20030;-74
2023/12/07 04:46:59;;;;;;;23.40;16.13;;;-0.30;99.90;;;;;;5138307;27;20031;-74
2023/12/07 04:49:25;;;;;;;27.33;18.00;;;-0.30;99.90;;;;;;5138513;27;20406;-74
2023/12/07 04:51:51;;;;;;;27.42;18.45;;;-0.20;99.90;;;;;;5138327;27;20098;-74
2023/12/07 04:54:17;;;;;;;26.80;20.48;;;-0.20;99.90;;;;;;5137966;27;20065;-74
2023/12/07 04:56:42;;;;;;;26.50;19.02;;;-0.20;99.90;;;;;;5137948;27;20027;-74
2023/12/07 04:59:09;;;;;;;26.83;19.38;;;-0.20;99.90;;;;;;5138068;27;20535;-74
2023/12/07 05:01:38;;;;;;;22.00;17.58;;;-0.10;99.90;;;;;;5137847;27;20034;-73
2023/12/07 05:04:04;;;;;;;24.65;18.23;;;-0.10;99.90;;;;;;5138144;27;20099;-73
2023/12/07 05:06:31;;;;;;;29.90;18.58;;;-0.10;99.90;;;;;;5119327;27;20495;-74
2023/12/07 05:08:56;;;;;;;26.40;17.58;;;-0.10;99.90;;;;;;5138066;27;20030;-74
2023/12/07 05:11:22;;;;;;;23.08;17.38;;;0.00;99.90;;;;;;5118841;27;20019;-74
2023/12/07 05:13:48;;;;;;;25.33;18.70;;;-0.10;99.90;;;;;;5119105;27;20062;-74
2023/12/07 05:16:14;;;;;;;34.28;19.58;;;-0.10;99.90;;;;;;5137658;27;20086;-74
2023/12/07 05:18:40;;;;;;;24.42;18.92;;;-0.10;99.90;;;;;;5135657;27;20099;-74
2023/12/07 05:21:07;;;;;;;27.02;19.75;;;-0.10;99.90;;;;;;5136744;27;20015;-74
2023/12/07 05:23:32;;;;;;;28.30;20.15;;;-0.20;99.90;;;;;;5115865;28;20035;-74
2023/12/07 05:25:58;;;;;;;30.83;20.55;;;-0.20;99.90;;;;;;5136794;27;20020;-74
2023/12/07 05:28:23;;;;;;;30.13;20.60;;;-0.20;99.90;;;;;;5137451;27;20563;-75
2023/12/07 05:30:49;;;;;;;30.13;20.15;;;-0.20;99.90;;;;;;5118729;27;20046;-74
2023/12/07 05:33:15;;;;;;;24.20;17.52;;;-0.20;99.90;;;;;;5102292;28;20023;-74
2023/12/07 05:35:41;;;;;;;26.42;17.92;;;-0.20;99.90;;;;;;5113900;27;20038;-74
2023/12/07 05:38:07;;;;;;;20.90;16.67;;;-0.20;99.90;;;;;;5122566;27;20451;-74
2023/12/07 05:40:33;;;;;;;18.65;15.20;;;-0.20;99.90;;;;;;5104005;27;20023;-74
2023/12/07 05:42:59;;;;;;;20.00;14.80;;;-0.20;99.90;;;;;;5098482;28;20418;-74
2023/12/07 05:45:26;;;;;;;281.92;94.93;;;-0.10;99.90;;;;;;5108846;27;20122;-74
2023/12/07 05:47:51;;;;;;;1132.43;483.80;;;0.00;99.90;;;;;;5097811;28;20556;-75
2023/12/07 05:50:17;;;;;;;257.95;115.20;;;0.10;99.90;;;;;;5118246;27;20039;-74
2023/12/07 05:52:43;;;;;;;50.15;33.35;;;0.10;99.90;;;;;;5103525;28;20067;-75
2023/12/07 05:55:09;;;;;;;157.70;102.82;;;0.20;99.90;;;;;;5121177;27;20111;-74
2023/12/07 05:57:35;;;;;;;23.23;18.00;;;0.30;99.90;;;;;;5103529;28;20115;-75
2023/12/07 06:00:01;;;;;;;17.25;13.43;;;0.40;99.90;;;;;;5120875;27;20028;-74
2023/12/07 06:02:26;;;;;;;23.33;13.85;;;0.50;99.90;;;;;;5119605;27;20035;-74
2023/12/07 06:04:53;;;;;;;16.75;13.27;;;0.60;99.90;;;;;;5120948;27;20024;-74
2023/12/07 06:07:18;;;;;;;22.75;14.82;;;0.60;99.90;;;;;;5116919;27;20049;-74
2023/12/07 06:09:44;;;;;;;42.28;31.17;;;0.60;99.90;;;;;;5113282;27;20453;-74
2023/12/07 06:12:10;;;;;;;70.28;39.67;;;0.60;99.90;;;;;;5111744;28;20042;-74
2023/12/07 06:14:35;;;;;;;186.38;102.93;;;0.50;99.90;;;;;;5107300;27;20031;-74
2023/12/07 06:17:01;;;;;;;147.52;83.55;;;0.40;99.90;;;;;;5103431;28;20027;-74
2023/12/07 06:19:27;;;;;;;63.78;38.63;;;0.40;99.90;;;;;;5107967;27;20031;-75
2023/12/07 06:21:52;;;;;;;34.72;24.80;;;0.30;99.90;;;;;;5124899;27;20016;-75
2023/12/07 06:24:18;;;;;;;40.10;24.95;;;0.30;99.90;;;;;;5107919;27;20083;-74
2023/12/07 06:26:44;;;;;;;36.80;24.05;;;0.30;99.90;;;;;;5101313;28;20026;-75
2023/12/07 06:29:09;;;;;;;204.63;77.72;;;0.30;99.90;;;;;;5117572;27;20403;-74
2023/12/07 06:31:35;;;;;;;75.07;34.22;;;0.30;99.90;;;;;;5125742;27;20015;-74
2023/12/07 06:34:01;;;;;;;304.70;109.40;;;0.30;99.90;;;;;;5102981;27;20034;-75
2023/12/07 06:36:27;;;;;;;67.57;35.17;;;0.30;99.90;;;;;;5124629;27;20490;-75
2023/12/07 06:38:54;;;;;;;121.15;47.10;;;0.30;99.90;;;;;;5112974;28;20027;-75
2023/12/07 06:41:20;;;;;;;461.20;166.27;;;0.30;99.90;;;;;;5126005;27;20019;-74
2023/12/07 06:43:46;;;;;;;360.92;125.50;;;0.40;99.90;;;;;;5119906;28;20023;-74
2023/12/07 06:46:12;;;;;;;210.57;81.60;;;0.40;99.90;;;;;;5122442;28;20027;-74
2023/12/07 06:48:38;;;;;;;163.68;73.47;;;0.40;99.90;;;;;;5103594;27;20028;-74
2023/12/07 06:51:04;;;;;;;135.65;78.18;;;0.40;99.90;;;;;;5122535;27;20024;-74
2023/12/07 06:53:31;;;;;;;56.72;32.78;;;0.50;99.90;;;;;;5107209;28;20043;-74
2023/12/07 06:55:57;;;;;;;68.90;36.28;;;0.40;99.90;;;;;;5112881;28;20031;-74
2023/12/07 06:58:23;;;;;;;40.22;23.95;;;0.50;99.90;;;;;;5112667;28;20047;-75
2023/12/07 07:00:49;;;;;;;33.50;20.05;;;0.50;99.90;;;;;;5106146;28;20111;-75
2023/12/07 07:03:15;;;;;;;29.88;21.75;;;0.50;99.90;;;;;;5099153;28;20408;-76
2023/12/07 07:05:41;;;;;;;29.75;19.88;;;0.60;99.90;;;;;;5096510;28;20019;-76
2023/12/07 07:08:07;;;;;;;33.70;21.30;;;0.60;99.90;;;;;;5105740;28;20036;-75
2023/12/07 07:10:33;;;;;;;34.10;20.75;;;0.60;99.90;;;;;;5097115;28;20048;-75
2023/12/07 07:13:04;;;;;;;85.45;44.53;;;0.50;99.90;;;;;;5098501;28;20023;-76
2023/12/07 07:15:31;;;;;;;85.72;47.85;;;0.60;99.90;;;;;;5106072;28;20055;-75
2023/12/07 07:17:57;;;;;;;51.40;31.52;;;0.60;99.90;;;;;;5097489;28;20024;-75
2023/12/07 07:20:22;;;;;;;28.33;16.15;;;0.60;99.90;;;;;;5111651;28;20101;-75
2023/12/07 07:22:48;;;;;;;18.70;14.18;;;0.60;99.90;;;;;;5109271;28;20491;-76
2023/12/07 07:25:15;;;;;;;21.25;16.25;;;0.60;99.90;;;;;;5109935;28;20347;-76
2023/12/07 07:27:42;;;;;;;20.08;16.60;;;0.70;99.90;;;;;;5111074;28;20023;-75
2023/12/07 07:30:08;;;;;;;20.17;13.23;;;0.70;99.90;;;;;;5109447;28;20788;-76
2023/12/07 07:32:34;;;;;;;12.75;10.50;;;0.90;99.90;;;;;;5110462;28;20039;-76
2023/12/07 07:35:00;;;;;;;17.33;13.40;;;0.90;99.90;;;;;;5107714;28;20404;-75
2023/12/07 07:37:26;;;;;;;13.43;12.02;;;1.00;99.90;;;;;;5100648;28;20060;-75
2023/12/07 07:39:52;;;;;;;13.45;11.65;;;1.00;99.90;;;;;;5105132;28;20898;-75
2023/12/07 07:42:17;;;;;;;19.48;11.40;;;1.10;99.90;;;;;;5104681;28;20611;-75
2023/12/07 07:44:43;;;;;;;17.85;11.90;;;1.20;99.90;;;;;;5106027;28;20840;-75
2023/12/07 07:47:08;;;;;;;15.38;12.25;;;1.20;99.90;;;;;;5112856;28;20050;-75
2023/12/07 07:49:34;;;;;;;14.75;12.02;;;1.30;99.90;;;;;;5107724;28;20039;-75
2023/12/07 07:52:00;;;;;;;15.13;12.50;;;1.30;99.90;;;;;;5101549;28;20043;-75
2023/12/07 07:54:26;;;;;;;24.27;15.40;;;1.40;99.90;;;;;;5106902;28;20133;-75
2023/12/07 07:56:52;;;;;;;28.92;22.20;;;1.40;99.90;;;;;;5110428;28;20043;-75
2023/12/07 07:59:17;;;;;;;113.82;52.78;;;1.50;99.90;;;;;;5111486;28;20027;-75
2023/12/07 08:01:44;;;;;;;202.48;85.97;;;1.60;99.90;;;;;;5106426;28;20039;-75
2023/12/07 08:04:10;;;;;;;178.88;76.57;;;1.70;99.90;;;;;;5108980;28;20058;-74
2023/12/07 08:06:35;;;;;;;84.55;38.15;;;1.70;99.90;;;;;;5107577;28;20024;-75
2023/12/07 08:09:01;;;;;;;68.30;32.17;;;1.80;99.90;;;;;;5109432;28;20103;-75
2023/12/07 08:11:27;;;;;;;346.65;131.23;;;1.90;99.90;;;;;;5106303;28;20079;-75
2023/12/07 08:13:52;;;;;;;120.47;54.40;;;2.00;99.90;;;;;;5107826;28;20495;-76
2023/12/07 08:16:19;;;;;;;55.88;29.90;;;2.00;99.90;;;;;;5108469;28;20032;-76
2023/12/07 08:18:44;;;;;;;30.15;16.88;;;2.20;99.90;;;;;;5110079;28;20020;-76
2023/12/07 08:21:19;;;;;;;25.60;13.18;;;2.30;99.90;;;;;;5105928;28;20034;-76
2023/12/07 08:23:45;;;;;;;129.98;48.58;;;2.60;99.90;;;;;;5102075;28;20023;-76
2023/12/07 08:26:11;;;;;;;22.35;12.05;;;2.90;99.90;;;;;;5111285;28;20042;-75
2023/12/07 08:28:36;;;;;;;144.40;54.00;;;3.20;99.90;;;;;;5104342;28;20369;-75
2023/12/07 08:31:02;;;;;;;71.78;31.13;;;3.40;99.90;;;;;;5106131;28;20812;-76
2023/12/07 08:33:28;;;;;;;104.88;39.50;;;3.60;99.90;;;;;;5103524;28;20051;-74
2023/12/07 08:35:55;;;;;;;22.17;13.93;;;3.80;99.90;;;;;;5106768;28;20027;-74
2023/12/07 08:38:22;;;;;;;56.90;25.77;;;4.00;99.90;;;;;;5108947;28;20027;-75
2023/12/07 08:40:48;;;;;;;27.63;13.90;;;4.20;99.90;;;;;;5105738;28;21468;-74
2023/12/07 08:43:13;;;;;;;20.98;12.90;;;4.40;99.90;;;;;;5106495;28;20031;-75
2023/12/07 08:45:39;;;;;;;41.67;18.30;;;4.60;99.90;;;;;;5108080;28;20114;-74
2023/12/07 08:48:05;;;;;;;48.60;22.63;;;4.80;99.90;;;;;;5102805;28;20028;-74
2023/12/07 08:50:31;;;;;;;21.75;12.57;;;4.90;99.90;;;;;;5107306;28;20027;-74
2023/12/07 08:52:56;;;;;;;16.65;10.57;;;5.00;99.90;;;;;;5110459;27;20120;-72
2023/12/07 08:55:22;;;;;;;30.75;16.75;;;5.10;99.90;;;;;;5128877;27;20034;-73
2023/12/07 08:57:48;;;;;;;34.22;19.42;;;5.20;99.90;;;;;;5132053;27;20036;-73
2023/12/07 09:00:14;;;;;;;13.05;8.02;;;5.30;99.90;;;;;;5126889;27;20395;-72
2023/12/07 09:02:39;;;;;;;9.68;6.50;;;5.40;99.90;;;;;;5128548;27;20016;-73
2023/12/07 09:05:05;;;;;;;6.65;6.03;;;5.60;99.90;;;;;;5112565;27;20031;-73
2023/12/07 09:07:31;;;;;;;15.18;11.98;;;5.80;99.90;;;;;;5129059;27;20015;-72
2023/12/07 09:09:57;;;;;;;15.15;8.73;;;5.90;99.90;;;;;;5111706;27;20034;-72
2023/12/07 09:12:22;;;;;;;6.72;5.53;;;6.00;99.90;;;;;;5118667;27;20023;-72
2023/12/07 09:14:48;;;;;;;10.07;6.47;;;6.10;99.90;;;;;;5127036;27;20031;-73
2023/12/07 09:17:14;;;;;;;14.52;10.18;;;6.20;99.90;;;;;;5128024;27;20549;-73
2023/12/07 09:19:39;;;;;;;37.90;22.75;;;6.30;99.90;;;;;;5125787;27;20383;-73
2023/12/07 09:22:05;;;;;;;10.82;7.28;;;6.40;99.90;;;;;;5124576;27;20023;-72
2023/12/07 09:24:31;;;;;;;6.68;5.30;;;6.40;99.90;;;;;;5127829;27;20033;-73
2023/12/07 09:26:56;;;;;;;9.65;6.55;;;6.50;99.90;;;;;;5131074;27;20030;-73
2023/12/07 09:29:22;;;;;;;82.50;33.35;;;6.70;99.90;;;;;;5113469;27;20051;-74
2023/12/07 09:31:48;;;;;;;19.10;9.60;;;6.80;99.90;;;;;;5125595;27;20615;-73
2023/12/07 09:34:17;;;;;;;9.80;5.90;;;6.90;99.90;;;;;;5114841;27;20031;-72
2023/12/07 09:36:43;;;;;;;399.40;142.15;;;7.00;99.90;;;;;;5113906;27;20024;-72
2023/12/07 09:39:10;;;;;;;115.75;38.22;;;7.10;99.90;;;;;;5132312;27;20020;-73
2023/12/07 09:41:37;;;;;;;11.40;6.85;;;7.20;99.90;;;;;;5133699;27;20043;-76
2023/12/07 09:44:03;;;;;;;23.40;9.88;;;7.30;99.90;;;;;;5135027;27;20027;-73
2023/12/07 09:46:29;;;;;;;8.10;5.63;;;7.40;99.90;;;;;;5117600;27;20027;-75
2023/12/07 09:48:55;;;;;;;28.67;15.30;;;7.60;99.90;;;;;;5136081;27;20031;-74
2023/12/07 09:51:22;;;;;;;20.63;10.35;;;7.60;99.90;;;;;;5135425;27;20034;-75
2023/12/07 09:53:52;;;;;;;17.50;11.05;;;7.70;99.90;;;;;;5114017;28;20051;-75
2023/12/07 09:56:18;;;;;;;6.70;5.28;;;7.70;99.90;;;;;;5114427;28;20638;-73
2023/12/07 09:58:45;;;;;;;13.02;8.10;;;7.80;99.90;;;;;;5108034;28;20055;-74
2023/12/07 10:01:13;;;;;;;35.90;23.10;;;7.90;99.90;;;;;;5113844;28;20012;-74
2023/12/07 10:03:39;;;;;;;6.47;5.10;;;7.80;99.90;;;;;;5114096;28;20028;-73
2023/12/07 10:06:05;;;;;;;7.53;5.50;;;7.90;99.90;;;;;;5114902;28;20018;-74
2023/12/07 10:08:32;;;;;;;7.75;5.57;;;7.90;99.90;;;;;;5112478;28;20031;-75
2023/12/07 10:11:15;;;;;;;8.10;6.53;;;7.90;99.90;;;;;;5115160;28;20049;-73
2023/12/07 10:13:40;;;;;;;7.47;5.22;;;8.00;99.90;;;;;;5112444;28;20024;-74
2023/12/07 10:16:06;;;;;;;4.82;4.35;;;8.00;99.90;;;;;;5113584;28;20081;-74
2023/12/07 10:18:32;;;;;;;6.07;5.43;;;8.10;99.90;;;;;;5114220;28;20081;-74
2023/12/07 10:20:58;;;;;;;8.20;5.72;;;8.20;99.90;;;;;;5113479;28;20023;-73
2023/12/07 10:23:26;;;;;;;8.75;4.90;;;8.30;99.90;;;;;;5114960;28;20028;-74
2023/12/07 10:25:52;;;;;;;7.35;3.97;;;8.30;99.90;;;;;;5114988;28;20019;-73
2023/12/07 10:28:19;;;;;;;6.28;3.75;;;8.40;99.90;;;;;;5111519;28;20032;-74
2023/12/07 10:30:45;;;;;;;9.45;5.47;;;8.50;99.90;;;;;;5110606;28;20059;-73
2023/12/07 10:33:13;;;;;;;10.65;6.20;;;8.50;99.90;;;;;;5115045;28;20106;-74
2023/12/07 10:35:39;;;;;;;17.90;11.30;;;8.50;99.90;;;;;;5113341;28;20062;-75
2023/12/07 10:38:05;;;;;;;6.43;4.25;;;8.60;99.90;;;;;;5111781;28;20103;-74
2023/12/07 10:40:31;;;;;;;13.45;8.68;;;8.70;99.90;;;;;;5111762;28;20032;-74
2023/12/07 10:42:58;;;;;;;4.35;3.95;;;8.80;99.90;;;;;;5112988;28;20105;-74
2023/12/07 10:45:30;;;;;;;4.68;3.80;;;8.90;99.90;;;;;;5113133;28;20049;-75
2023/12/07 10:48:06;;;;;;;9.60;6.93;;;8.90;99.90;;;;;;5114437;28;20028;-74
2023/12/07 10:50:36;;;;;;;30.33;16.65;;;9.00;99.90;;;;;;5112561;28;20027;-74
2023/12/07 10:53:30;;;;;;;7.07;4.88;;;9.00;99.90;;;;;;5117414;28;20035;-75
2023/12/07 10:55:57;;;;;;;25.98;14.70;;;9.00;99.90;;;;;;5134080;28;20102;-75
2023/12/07 10:58:26;;;;;;;57.35;32.33;;;9.10;99.90;;;;;;5134695;28;20043;-75
2023/12/07 11:00:57;;;;;;;6.05;4.78;;;9.10;99.90;;;;;;5132032;28;20016;-73
2023/12/07 11:03:23;;;;;;;13.73;8.02;;;9.20;99.90;;;;;;5119120;28;20567;-74
2023/12/07 11:05:50;;;;;;;6.70;4.50;;;9.30;99.90;;;;;;5135224;28;20468;-76
2023/12/07 11:08:26;;;;;;;5.90;4.20;;;9.30;99.90;;;;;;5134808;28;20070;-77
2023/12/07 11:11:24;;;;;;;5.97;4.90;;;9.30;99.90;;;;;;5124136;28;20428;-74
2023/12/07 11:14:00;;;;;;;5.70;4.75;;;9.40;99.90;;;;;;5108519;28;20031;-75
2023/12/07 11:16:36;;;;;;;9.88;5.85;;;9.40;99.90;;;;;;5105070;28;20032;-75
2023/12/07 11:19:02;;;;;;;5.70;3.50;;;9.50;99.90;;;;;;5110463;28;20027;-76
2023/12/07 11:21:28;;;;;;;4.07;3.67;;;9.60;99.90;;;;;;5127249;28;20018;-74
2023/12/07 11:23:54;;;;;;;5.63;4.22;;;9.60;99.90;;;;;;5111720;28;20498;-74
2023/12/07 11:26:24;;;;;;;7.15;3.83;;;9.70;99.90;;;;;;5103806;28;20023;-73
2023/12/07 11:28:50;;;;;;;5.30;4.53;;;9.70;99.90;;;;;;5124378;28;20072;-73
2023/12/07 11:31:16;;;;;;;5.07;3.40;;;9.70;99.90;;;;;;5128703;28;20047;-74
2023/12/07 11:33:42;;;;;;;6.88;3.85;;;9.60;99.90;;;;;;5128446;28;20022;-74
2023/12/07 11:36:10;;;;;;;4.43;3.50;;;9.70;99.90;;;;;;5129841;27;20027;-73
2023/12/07 11:38:37;;;;;;;6.30;3.85;;;9.70;99.90;;;;;;5114029;27;20027;-74
2023/12/07 11:41:03;;;;;;;9.90;3.90;;;9.60;99.90;;;;;;5131273;27;20019;-72
2023/12/07 11:43:42;;;;;;;3.95;3.53;;;9.60;99.90;;;;;;5111791;27;20026;-73
2023/12/07 11:46:08;;;;;;;5.97;3.63;;;9.60;99.90;;;;;;5129636;27;20399;-73
2023/12/07 11:48:34;;;;;;;11.02;4.43;;;9.70;99.90;;;;;;5130687;27;20118;-73
2023/12/07 11:51:07;;;;;;;6.53;3.72;;;9.70;99.90;;;;;;5129332;27;20058;-73
2023/12/07 11:53:37;;;;;;;5.47;4.30;;;9.70;99.90;;;;;;5128713;27;20105;-73
2023/12/07 11:56:05;;;;;;;4.67;3.73;;;9.80;99.90;;;;;;5131972;27;20061;-75
2023/12/07 11:58:33;;;;;;;5.50;3.17;;;9.80;99.90;;;;;;5129444;27;20076;-75
2023/12/07 12:01:00;;;;;;;9.02;3.97;;;9.80;99.90;;;;;;5127897;27;20489;-75
2023/12/07 12:03:27;;;;;;;6.97;3.50;;;9.90;99.90;;;;;;5115400;27;20026;-73
2023/12/07 12:05:54;;;;;;;6.47;3.75;;;9.90;99.90;;;;;;5111938;28;20023;-73
2023/12/07 12:08:20;;;;;;;7.18;3.58;;;9.90;99.90;;;;;;5130513;27;20023;-74
2023/12/07 12:10:47;;;;;;;4.40;3.65;;;10.00;99.90;;;;;;5113914;27;20102;-75
2023/12/07 12:13:13;;;;;;;4.07;3.67;;;10.00;99.90;;;;;;5114787;27;20118;-74
2023/12/07 12:15:39;;;;;;;7.43;3.78;;;10.00;99.90;;;;;;5127084;27;20055;-74
2023/12/07 12:18:06;;;;;;;5.00;3.28;;;10.00;99.90;;;;;;5128919;27;20122;-74
2023/12/07 12:20:32;;;;;;;5.25;3.55;;;10.10;99.90;;;;;;5111485;28;20046;-75
2023/12/07 12:22:58;;;;;;;8.35;3.30;;;10.10;99.90;;;;;;5127286;27;20027;-75
2023/12/07 12:25:30;;;;;;;4.63;3.00;;;10.20;99.90;;;;;;5121759;27;20032;-77
2023/12/07 12:28:03;;;;;;;7.82;3.55;;;10.20;99.90;;;;;;5112389;28;20084;-74
2023/12/07 12:30:30;;;;;;;4.68;3.22;;;10.20;99.90;;;;;;5121660;27;20118;-74
2023/12/07 12:32:57;;;;;;;6.20;3.67;;;10.30;99.90;;;;;;5125541;27;20063;-77